sensor_id;sensor_type;location;lat;lon;timestamp;temperature;humidity
63371;DHT22;49504;48.336;14.472;2022-10-23T00:00:46;25.70;51.00
63371;DHT22;49504;48.336;14.472;2022-10-23T00:05:47;25.70;51.00
63371;DHT22;49504;48.336;14.472;2022-10-23T00:10:48;25.70;51.10
63371;DHT22;49504;48.336;14.472;2022-10-23T00:15:50;25.70;51.00
63371;DHT22;49504;48.336;14.472;2022-10-23T00:20:51;25.70;51.00
63371;DHT22;49504;48.336;14.472;2022-10-23T00:25:52;25.70;51.00
63371;DHT22;49504;48.336;14.472;2022-10-23T00:30:54;25.70;51.10
63371;DHT22;49504;48.336;14.472;2022-10-23T00:35:55;25.70;51.10
63371;DHT22;49504;48.336;14.472;2022-10-23T00:40:56;25.70;51.10
63371;DHT22;49504;48.336;14.472;2022-10-23T00:45:58;25.70;51.10
63371;DHT22;49504;48.336;14.472;2022-10-23T00:50:59;25.70;51.10
63371;DHT22;49504;48.336;14.472;2022-10-23T00:56:00;25.70;51.10
63371;DHT22;49504;48.336;14.472;2022-10-23T01:01:15;25.70;51.10
63371;DHT22;49504;48.336;14.472;2022-10-23T01:06:28;25.60;51.00
63371;DHT22;49504;48.336;14.472;2022-10-23T01:11:38;25.60;51.00
63371;DHT22;49504;48.336;14.472;2022-10-23T01:16:48;25.60;51.10
63371;DHT22;49504;48.336;14.472;2022-10-23T01:25:38;25.60;50.40
63371;DHT22;49504;48.336;14.472;2022-10-23T01:30:49;25.70;51.10
63371;DHT22;49504;48.336;14.472;2022-10-23T01:35:51;25.60;51.00
63371;DHT22;49504;48.336;14.472;2022-10-23T01:44:17;25.60;50.40
63371;DHT22;49504;48.336;14.472;2022-10-23T01:49:20;25.60;51.00
63371;DHT22;49504;48.336;14.472;2022-10-23T01:58:52;25.60;50.40
63371;DHT22;49504;48.336;14.472;2022-10-23T02:08:12;25.60;50.40
63371;DHT22;49504;48.336;14.472;2022-10-23T02:13:18;25.60;51.10
63371;DHT22;49504;48.336;14.472;2022-10-23T02:18:31;25.60;51.10
63371;DHT22;49504;48.336;14.472;2022-10-23T02:23:39;25.60;51.10
63371;DHT22;49504;48.336;14.472;2022-10-23T02:28:47;25.60;51.10
63371;DHT22;49504;48.336;14.472;2022-10-23T02:33:54;25.60;51.10
63371;DHT22;49504;48.336;14.472;2022-10-23T02:38:57;25.60;51.10
63371;DHT22;49504;48.336;14.472;2022-10-23T02:44:09;25.60;51.10
63371;DHT22;49504;48.336;14.472;2022-10-23T02:49:25;25.60;51.00
63371;DHT22;49504;48.336;14.472;2022-10-23T02:54:47;25.60;51.10
63371;DHT22;49504;48.336;14.472;2022-10-23T03:00:00;25.50;51.00
63371;DHT22;49504;48.336;14.472;2022-10-23T03:05:08;25.60;51.10
63371;DHT22;49504;48.336;14.472;2022-10-23T03:10:12;25.50;51.00
63371;DHT22;49504;48.336;14.472;2022-10-23T03:17:35;25.50;50.50
63371;DHT22;49504;48.336;14.472;2022-10-23T03:22:36;25.50;51.00
63371;DHT22;49504;48.336;14.472;2022-10-23T03:27:37;25.50;51.00
63371;DHT22;49504;48.336;14.472;2022-10-23T03:36:08;25.50;50.40
63371;DHT22;49504;48.336;14.472;2022-10-23T03:41:09;25.50;51.00
63371;DHT22;49504;48.336;14.472;2022-10-23T03:46:10;25.50;51.00
63371;DHT22;49504;48.336;14.472;2022-10-23T03:59:04;25.50;50.50
63371;DHT22;49504;48.336;14.472;2022-10-23T04:04:13;25.50;50.40
63371;DHT22;49504;48.336;14.472;2022-10-23T04:09:14;25.50;51.00
63371;DHT22;49504;48.336;14.472;2022-10-23T04:14:15;25.50;51.00
63371;DHT22;49504;48.336;14.472;2022-10-23T04:19:17;25.50;51.00
63371;DHT22;49504;48.336;14.472;2022-10-23T04:28:09;25.50;50.50
63371;DHT22;49504;48.336;14.472;2022-10-23T04:33:55;25.50;50.40
63371;DHT22;49504;48.336;14.472;2022-10-23T04:38:56;25.50;50.80
63371;DHT22;49504;48.336;14.472;2022-10-23T04:43:57;25.50;51.00
63371;DHT22;49504;48.336;14.472;2022-10-23T04:48:59;25.40;50.70
63371;DHT22;49504;48.336;14.472;2022-10-23T04:54:00;25.50;50.90
63371;DHT22;49504;48.336;14.472;2022-10-23T04:59:01;25.50;51.00
63371;DHT22;49504;48.336;14.472;2022-10-23T05:04:04;25.50;51.00
63371;DHT22;49504;48.336;14.472;2022-10-23T05:09:04;25.50;51.10
63371;DHT22;49504;48.336;14.472;2022-10-23T05:14:05;25.50;51.10
63371;DHT22;49504;48.336;14.472;2022-10-23T05:19:09;25.50;51.00
63371;DHT22;49504;48.336;14.472;2022-10-23T05:24:14;25.50;50.90
63371;DHT22;49504;48.336;14.472;2022-10-23T05:33:32;25.40;50.30
63371;DHT22;49504;48.336;14.472;2022-10-23T05:41:17;25.40;50.20
63371;DHT22;49504;48.336;14.472;2022-10-23T05:48:35;25.40;50.20
63371;DHT22;49504;48.336;14.472;2022-10-23T05:53:36;25.40;50.70
63371;DHT22;49504;48.336;14.472;2022-10-23T05:58:40;25.50;50.80
63371;DHT22;49504;48.336;14.472;2022-10-23T06:03:43;25.40;50.10
63371;DHT22;49504;48.336;14.472;2022-10-23T06:20:11;25.40;49.80
63371;DHT22;49504;48.336;14.472;2022-10-23T06:25:15;25.40;50.80
63371;DHT22;49504;48.336;14.472;2022-10-23T06:30:18;25.60;50.20
63371;DHT22;49504;48.336;14.472;2022-10-23T06:35:21;25.60;49.70
63371;DHT22;49504;48.336;14.472;2022-10-23T06:40:22;25.60;50.00
63371;DHT22;49504;48.336;14.472;2022-10-23T06:45:24;25.60;49.70
63371;DHT22;49504;48.336;14.472;2022-10-23T06:50:27;25.60;49.40
63371;DHT22;49504;48.336;14.472;2022-10-23T06:55:28;25.60;49.80
63371;DHT22;49504;48.336;14.472;2022-10-23T07:00:29;25.60;48.90
63371;DHT22;49504;48.336;14.472;2022-10-23T07:05:32;25.60;47.70
63371;DHT22;49504;48.336;14.472;2022-10-23T07:10:33;25.60;48.80
63371;DHT22;49504;48.336;14.472;2022-10-23T07:15:34;25.50;49.30
63371;DHT22;49504;48.336;14.472;2022-10-23T07:20:37;25.50;49.30
63371;DHT22;49504;48.336;14.472;2022-10-23T07:25:38;25.50;49.50
63371;DHT22;49504;48.336;14.472;2022-10-23T07:30:39;25.50;49.00
63371;DHT22;49504;48.336;14.472;2022-10-23T07:35:42;25.50;49.00
63371;DHT22;49504;48.336;14.472;2022-10-23T07:40:43;25.50;49.00
63371;DHT22;49504;48.336;14.472;2022-10-23T07:45:46;25.50;49.20
63371;DHT22;49504;48.336;14.472;2022-10-23T07:50:49;25.50;49.20
63371;DHT22;49504;48.336;14.472;2022-10-23T07:55:52;25.50;49.20
63371;DHT22;49504;48.336;14.472;2022-10-23T08:00:55;25.50;49.70
63371;DHT22;49504;48.336;14.472;2022-10-23T08:05:58;25.50;50.00
63371;DHT22;49504;48.336;14.472;2022-10-23T08:11:00;25.60;49.60
63371;DHT22;49504;48.336;14.472;2022-10-23T08:16:01;25.60;49.70
63371;DHT22;49504;48.336;14.472;2022-10-23T08:21:03;25.60;49.40
63371;DHT22;49504;48.336;14.472;2022-10-23T08:26:05;25.50;50.00
63371;DHT22;49504;48.336;14.472;2022-10-23T08:31:07;25.60;50.40
63371;DHT22;49504;48.336;14.472;2022-10-23T08:36:17;25.60;50.20
63371;DHT22;49504;48.336;14.472;2022-10-23T08:41:24;25.60;50.50
63371;DHT22;49504;48.336;14.472;2022-10-23T08:46:30;25.60;50.60
63371;DHT22;49504;48.336;14.472;2022-10-23T08:51:36;25.60;50.80
63371;DHT22;49504;48.336;14.472;2022-10-23T08:56:42;25.60;51.00
63371;DHT22;49504;48.336;14.472;2022-10-23T09:01:49;25.60;51.20
63371;DHT22;49504;48.336;14.472;2022-10-23T09:07:01;25.60;51.20
63371;DHT22;49504;48.336;14.472;2022-10-23T09:12:11;25.60;51.20
63371;DHT22;49504;48.336;14.472;2022-10-23T09:17:21;25.70;51.40
63371;DHT22;49504;48.336;14.472;2022-10-23T09:22:26;25.60;51.30
63371;DHT22;49504;48.336;14.472;2022-10-23T09:27:27;25.60;51.40
63371;DHT22;49504;48.336;14.472;2022-10-23T09:32:33;25.60;51.50
63371;DHT22;49504;48.336;14.472;2022-10-23T09:37:45;25.70;51.50
63371;DHT22;49504;48.336;14.472;2022-10-23T09:42:51;25.60;51.40
63371;DHT22;49504;48.336;14.472;2022-10-23T09:48:09;25.70;51.70
63371;DHT22;49504;48.336;14.472;2022-10-23T09:53:16;25.70;51.70
63371;DHT22;49504;48.336;14.472;2022-10-23T09:58:31;25.70;51.90
63371;DHT22;49504;48.336;14.472;2022-10-23T10:03:36;25.70;51.80
63371;DHT22;49504;48.336;14.472;2022-10-23T10:08:43;25.70;52.00
63371;DHT22;49504;48.336;14.472;2022-10-23T10:14:05;25.70;52.10
63371;DHT22;49504;48.336;14.472;2022-10-23T10:19:36;25.70;52.00
63371;DHT22;49504;48.336;14.472;2022-10-23T10:24:53;25.70;52.20
63371;DHT22;49504;48.336;14.472;2022-10-23T10:30:04;25.70;52.20
63371;DHT22;49504;48.336;14.472;2022-10-23T10:35:24;25.70;52.30
63371;DHT22;49504;48.336;14.472;2022-10-23T10:40:33;25.80;52.30
63371;DHT22;49504;48.336;14.472;2022-10-23T10:45:37;25.80;52.40
63371;DHT22;49504;48.336;14.472;2022-10-23T10:50:44;25.80;52.60
63371;DHT22;49504;48.336;14.472;2022-10-23T10:55:50;25.80;52.60
63371;DHT22;49504;48.336;14.472;2022-10-23T11:00:59;25.80;52.70
63371;DHT22;49504;48.336;14.472;2022-10-23T11:06:08;25.80;52.60
63371;DHT22;49504;48.336;14.472;2022-10-23T11:11:18;25.90;52.70
63371;DHT22;49504;48.336;14.472;2022-10-23T11:16:23;25.80;52.70
63371;DHT22;49504;48.336;14.472;2022-10-23T11:21:32;25.90;52.70
63371;DHT22;49504;48.336;14.472;2022-10-23T11:26:49;25.90;52.70
63371;DHT22;49504;48.336;14.472;2022-10-23T11:32:08;25.90;52.60
63371;DHT22;49504;48.336;14.472;2022-10-23T11:37:28;25.90;52.60
63371;DHT22;49504;48.336;14.472;2022-10-23T11:42:32;25.90;52.70
63371;DHT22;49504;48.336;14.472;2022-10-23T11:47:55;25.90;52.60
63371;DHT22;49504;48.336;14.472;2022-10-23T11:53:00;25.90;52.60
63371;DHT22;49504;48.336;14.472;2022-10-23T11:58:19;25.90;52.60
63371;DHT22;49504;48.336;14.472;2022-10-23T12:03:24;25.90;52.50
63371;DHT22;49504;48.336;14.472;2022-10-23T12:08:32;25.90;52.70
63371;DHT22;49504;48.336;14.472;2022-10-23T12:13:46;26.00;53.00
63371;DHT22;49504;48.336;14.472;2022-10-23T12:18:49;25.90;53.00
63371;DHT22;49504;48.336;14.472;2022-10-23T12:24:05;26.00;53.40
63371;DHT22;49504;48.336;14.472;2022-10-23T12:33:19;26.00;52.10
63371;DHT22;49504;48.336;14.472;2022-10-23T12:38:25;26.00;51.70
63371;DHT22;49504;48.336;14.472;2022-10-23T12:43:28;26.00;51.50
63371;DHT22;49504;48.336;14.472;2022-10-23T12:52:35;26.00;51.30
63371;DHT22;49504;48.336;14.472;2022-10-23T12:57:40;26.00;51.60
63371;DHT22;49504;48.336;14.472;2022-10-23T13:02:41;26.00;51.50
63371;DHT22;49504;48.336;14.472;2022-10-23T13:07:46;26.00;51.40
63371;DHT22;49504;48.336;14.472;2022-10-23T13:12:52;26.00;51.30
63371;DHT22;49504;48.336;14.472;2022-10-23T13:18:02;26.00;51.30
63371;DHT22;49504;48.336;14.472;2022-10-23T13:23:17;26.00;51.30
63371;DHT22;49504;48.336;14.472;2022-10-23T13:28:23;26.00;51.40
63371;DHT22;49504;48.336;14.472;2022-10-23T13:38:15;26.00;51.00
63371;DHT22;49504;48.336;14.472;2022-10-23T13:43:16;26.00;51.20
63371;DHT22;49504;48.336;14.472;2022-10-23T13:48:17;26.00;51.10
63371;DHT22;49504;48.336;14.472;2022-10-23T13:53:21;26.00;51.10
63371;DHT22;49504;48.336;14.472;2022-10-23T13:58:22;26.00;51.10
63371;DHT22;49504;48.336;14.472;2022-10-23T14:03:23;26.00;51.00
63371;DHT22;49504;48.336;14.472;2022-10-23T14:08:26;26.00;51.00
63371;DHT22;49504;48.336;14.472;2022-10-23T14:13:27;26.00;50.90
63371;DHT22;49504;48.336;14.472;2022-10-23T14:18:28;26.00;50.90
63371;DHT22;49504;48.336;14.472;2022-10-23T14:23:30;26.00;50.90
63371;DHT22;49504;48.336;14.472;2022-10-23T14:28:31;26.00;50.80
63371;DHT22;49504;48.336;14.472;2022-10-23T14:33:32;26.00;50.80
63371;DHT22;49504;48.336;14.472;2022-10-23T14:38:35;26.00;50.80
63371;DHT22;49504;48.336;14.472;2022-10-23T14:43:36;26.00;50.70
63371;DHT22;49504;48.336;14.472;2022-10-23T14:48:37;25.90;50.60
63371;DHT22;49504;48.336;14.472;2022-10-23T14:53:40;26.00;50.50
63371;DHT22;49504;48.336;14.472;2022-10-23T14:58:41;25.90;50.50
63371;DHT22;49504;48.336;14.472;2022-10-23T15:03:42;25.90;50.40
63371;DHT22;49504;48.336;14.472;2022-10-23T15:08:44;25.90;50.50
63371;DHT22;49504;48.336;14.472;2022-10-23T15:13:45;25.90;50.40
63371;DHT22;49504;48.336;14.472;2022-10-23T15:18:46;25.90;50.20
63371;DHT22;49504;48.336;14.472;2022-10-23T15:23:49;25.90;50.20
63371;DHT22;49504;48.336;14.472;2022-10-23T15:28:52;25.90;50.20
63371;DHT22;49504;48.336;14.472;2022-10-23T15:33:54;25.90;50.20
63371;DHT22;49504;48.336;14.472;2022-10-23T15:38:57;25.90;50.10
63371;DHT22;49504;48.336;14.472;2022-10-23T15:43:59;25.80;50.70
63371;DHT22;49504;48.336;14.472;2022-10-23T15:49:00;25.90;50.10
63371;DHT22;49504;48.336;14.472;2022-10-23T15:54:03;25.90;50.10
63371;DHT22;49504;48.336;14.472;2022-10-23T15:59:05;25.80;50.10
63371;DHT22;49504;48.336;14.472;2022-10-23T16:04:06;25.80;50.00
63371;DHT22;49504;48.336;14.472;2022-10-23T16:09:08;25.90;50.20
63371;DHT22;49504;48.336;14.472;2022-10-23T16:14:12;25.80;50.10
63371;DHT22;49504;48.336;14.472;2022-10-23T16:19:14;25.80;50.10
63371;DHT22;49504;48.336;14.472;2022-10-23T16:24:16;25.90;50.30
63371;DHT22;49504;48.336;14.472;2022-10-23T16:29:18;25.80;50.30
63371;DHT22;49504;48.336;14.472;2022-10-23T16:39:24;25.80;49.80
63371;DHT22;49504;48.336;14.472;2022-10-23T16:44:25;25.80;50.30
63371;DHT22;49504;48.336;14.472;2022-10-23T16:49:26;25.80;50.70
63371;DHT22;49504;48.336;14.472;2022-10-23T16:54:28;25.90;50.60
63371;DHT22;49504;48.336;14.472;2022-10-23T17:04:02;25.90;50.00
63371;DHT22;49504;48.336;14.472;2022-10-23T17:09:03;25.90;50.40
63371;DHT22;49504;48.336;14.472;2022-10-23T17:14:06;25.90;50.60
63371;DHT22;49504;48.336;14.472;2022-10-23T17:19:18;25.90;50.40
63371;DHT22;49504;48.336;14.472;2022-10-23T17:24:21;25.90;50.40
63371;DHT22;49504;48.336;14.472;2022-10-23T17:29:22;25.90;50.30
63371;DHT22;49504;48.336;14.472;2022-10-23T17:34:25;25.90;50.30
63371;DHT22;49504;48.336;14.472;2022-10-23T17:39:28;25.90;50.30
63371;DHT22;49504;48.336;14.472;2022-10-23T17:44:29;25.90;50.80
63371;DHT22;49504;48.336;14.472;2022-10-23T17:49:31;25.90;50.60
63371;DHT22;49504;48.336;14.472;2022-10-23T17:54:32;25.90;50.50
63371;DHT22;49504;48.336;14.472;2022-10-23T17:59:33;25.90;50.50
63371;DHT22;49504;48.336;14.472;2022-10-23T18:04:35;25.90;50.40
63371;DHT22;49504;48.336;14.472;2022-10-23T18:11:54;25.90;50.00
63371;DHT22;49504;48.336;14.472;2022-10-23T18:16:55;25.90;50.40
63371;DHT22;49504;48.336;14.472;2022-10-23T18:21:56;25.90;50.30
63371;DHT22;49504;48.336;14.472;2022-10-23T18:26:59;25.90;50.30
63371;DHT22;49504;48.336;14.472;2022-10-23T18:31:59;25.90;50.30
63371;DHT22;49504;48.336;14.472;2022-10-23T18:37:00;25.90;50.30
63371;DHT22;49504;48.336;14.472;2022-10-23T18:42:03;25.90;50.30
63371;DHT22;49504;48.336;14.472;2022-10-23T18:47:04;25.90;50.20
63371;DHT22;49504;48.336;14.472;2022-10-23T18:52:05;25.90;50.20
63371;DHT22;49504;48.336;14.472;2022-10-23T18:57:07;25.90;50.20
63371;DHT22;49504;48.336;14.472;2022-10-23T19:02:09;25.90;50.20
63371;DHT22;49504;48.336;14.472;2022-10-23T19:09:32;25.80;49.80
63371;DHT22;49504;48.336;14.472;2022-10-23T19:17:13;25.80;49.80
63371;DHT22;49504;48.336;14.472;2022-10-23T19:22:17;25.90;50.80
63371;DHT22;49504;48.336;14.472;2022-10-23T19:30:11;25.80;50.10
63371;DHT22;49504;48.336;14.472;2022-10-23T19:35:16;25.90;50.80
63371;DHT22;49504;48.336;14.472;2022-10-23T19:40:18;25.80;50.80
63371;DHT22;49504;48.336;14.472;2022-10-23T19:45:20;25.80;51.00
63371;DHT22;49504;48.336;14.472;2022-10-23T19:50:21;25.80;51.10
63371;DHT22;49504;48.336;14.472;2022-10-23T19:55:22;25.90;51.20
63371;DHT22;49504;48.336;14.472;2022-10-23T20:00:24;25.80;51.10
63371;DHT22;49504;48.336;14.472;2022-10-23T20:05:25;25.90;51.20
63371;DHT22;49504;48.336;14.472;2022-10-23T20:10:26;25.90;51.10
63371;DHT22;49504;48.336;14.472;2022-10-23T20:15:29;25.90;50.90
63371;DHT22;49504;48.336;14.472;2022-10-23T20:20:30;25.80;50.80
63371;DHT22;49504;48.336;14.472;2022-10-23T20:25:31;25.80;50.70
63371;DHT22;49504;48.336;14.472;2022-10-23T20:30:34;25.80;50.60
63371;DHT22;49504;48.336;14.472;2022-10-23T20:36:47;25.80;50.10
63371;DHT22;49504;48.336;14.472;2022-10-23T20:41:48;25.80;50.10
63371;DHT22;49504;48.336;14.472;2022-10-23T20:46:50;25.90;50.20
63371;DHT22;49504;48.336;14.472;2022-10-23T20:51:54;25.90;50.40
63371;DHT22;49504;48.336;14.472;2022-10-23T20:56:55;25.90;50.70
63371;DHT22;49504;48.336;14.472;2022-10-23T21:01:56;25.90;50.60
63371;DHT22;49504;48.336;14.472;2022-10-23T21:06:59;25.90;50.80
63371;DHT22;49504;48.336;14.472;2022-10-23T21:12:00;25.90;50.60
63371;DHT22;49504;48.336;14.472;2022-10-23T21:17:01;25.90;50.80
63371;DHT22;49504;48.336;14.472;2022-10-23T21:22:03;25.90;50.80
63371;DHT22;49504;48.336;14.472;2022-10-23T21:29:32;25.80;50.10
63371;DHT22;49504;48.336;14.472;2022-10-23T21:34:33;25.80;50.90
63371;DHT22;49504;48.336;14.472;2022-10-23T21:41:11;25.80;50.20
63371;DHT22;49504;48.336;14.472;2022-10-23T21:46:15;25.80;51.00
63371;DHT22;49504;48.336;14.472;2022-10-23T21:51:20;25.80;51.00
63371;DHT22;49504;48.336;14.472;2022-10-23T21:56:27;25.80;51.00
63371;DHT22;49504;48.336;14.472;2022-10-23T22:01:29;25.80;51.40
63371;DHT22;49504;48.336;14.472;2022-10-23T22:06:30;25.80;51.00
63371;DHT22;49504;48.336;14.472;2022-10-23T22:11:33;25.90;51.80
63371;DHT22;49504;48.336;14.472;2022-10-23T22:16:34;25.80;51.10
63371;DHT22;49504;48.336;14.472;2022-10-23T22:21:34;25.80;51.10
63371;DHT22;49504;48.336;14.472;2022-10-23T22:26:39;25.80;51.20
63371;DHT22;49504;48.336;14.472;2022-10-23T22:31:41;25.80;51.20
63371;DHT22;49504;48.336;14.472;2022-10-23T22:40:05;25.80;50.60
63371;DHT22;49504;48.336;14.472;2022-10-23T22:47:48;25.80;50.60
63371;DHT22;49504;48.336;14.472;2022-10-23T22:52:49;25.80;51.20
63371;DHT22;49504;48.336;14.472;2022-10-23T22:57:50;25.80;51.20
63371;DHT22;49504;48.336;14.472;2022-10-23T23:02:52;25.80;51.30
63371;DHT22;49504;48.336;14.472;2022-10-23T23:07:53;25.80;51.30
63371;DHT22;49504;48.336;14.472;2022-10-23T23:12:54;25.80;51.30
63371;DHT22;49504;48.336;14.472;2022-10-23T23:17:56;25.80;51.30
63371;DHT22;49504;48.336;14.472;2022-10-23T23:22:57;25.80;51.30
63371;DHT22;49504;48.336;14.472;2022-10-23T23:27:58;25.80;51.30
63371;DHT22;49504;48.336;14.472;2022-10-23T23:33:00;25.80;51.30
63371;DHT22;49504;48.336;14.472;2022-10-23T23:38:01;25.80;51.30
63371;DHT22;49504;48.336;14.472;2022-10-23T23:43:03;25.70;51.20
63371;DHT22;49504;48.336;14.472;2022-10-23T23:48:05;25.80;51.30
63371;DHT22;49504;48.336;14.472;2022-10-23T23:58:23;25.70;50.60
